sensor_id;sensor_type;location;lat;lon;timestamp;temperature;humidity
4795;DHT22;2411;47.060;15.064;2023-09-07T00:00:18;13.30;99.90
4795;DHT22;2411;47.060;15.064;2023-09-07T00:02:45;13.30;99.90
4795;DHT22;2411;47.060;15.064;2023-09-07T00:05:13;13.10;99.90
4795;DHT22;2411;47.060;15.064;2023-09-07T00:07:41;13.40;99.90
4795;DHT22;2411;47.060;15.064;2023-09-07T00:10:08;13.30;99.90
4795;DHT22;2411;47.060;15.064;2023-09-07T00:12:36;13.60;99.90
4795;DHT22;2411;47.060;15.064;2023-09-07T00:15:06;13.80;99.90
4795;DHT22;2411;47.060;15.064;2023-09-07T00:17:34;13.50;99.90
4795;DHT22;2411;47.060;15.064;2023-09-07T00:20:02;13.80;99.90
4795;DHT22;2411;47.060;15.064;2023-09-07T00:22:38;13.50;99.90
4795;DHT22;2411;47.060;15.064;2023-09-07T00:25:05;13.40;99.90
4795;DHT22;2411;47.060;15.064;2023-09-07T00:27:34;13.30;99.90
4795;DHT22;2411;47.060;15.064;2023-09-07T00:30:02;13.40;99.90
4795;DHT22;2411;47.060;15.064;2023-09-07T00:32:36;13.60;99.90
4795;DHT22;2411;47.060;15.064;2023-09-07T00:35:05;13.40;99.90
4795;DHT22;2411;47.060;15.064;2023-09-07T00:37:33;13.40;99.90
4795;DHT22;2411;47.060;15.064;2023-09-07T00:40:00;13.90;99.90
4795;DHT22;2411;47.060;15.064;2023-09-07T00:42:28;13.90;99.90
4795;DHT22;2411;47.060;15.064;2023-09-07T00:44:55;13.90;99.90
4795;DHT22;2411;47.060;15.064;2023-09-07T00:47:22;13.90;99.90
4795;DHT22;2411;47.060;15.064;2023-09-07T00:49:50;13.90;99.90
4795;DHT22;2411;47.060;15.064;2023-09-07T00:52:18;13.40;99.90
4795;DHT22;2411;47.060;15.064;2023-09-07T00:54:46;13.20;99.90
4795;DHT22;2411;47.060;15.064;2023-09-07T00:57:14;13.10;99.90
4795;DHT22;2411;47.060;15.064;2023-09-07T00:59:41;13.00;99.90
4795;DHT22;2411;47.060;15.064;2023-09-07T01:02:08;12.90;99.90
4795;DHT22;2411;47.060;15.064;2023-09-07T01:04:36;13.20;99.90
4795;DHT22;2411;47.060;15.064;2023-09-07T01:07:09;13.30;99.90
4795;DHT22;2411;47.060;15.064;2023-09-07T01:09:42;13.10;99.90
4795;DHT22;2411;47.060;15.064;2023-09-07T01:12:16;13.10;99.90
4795;DHT22;2411;47.060;15.064;2023-09-07T01:14:44;13.50;99.90
4795;DHT22;2411;47.060;15.064;2023-09-07T01:17:11;13.20;99.90
4795;DHT22;2411;47.060;15.064;2023-09-07T01:19:41;13.00;99.90
4795;DHT22;2411;47.060;15.064;2023-09-07T01:22:09;13.00;99.90
4795;DHT22;2411;47.060;15.064;2023-09-07T01:24:38;13.00;99.90
4795;DHT22;2411;47.060;15.064;2023-09-07T01:27:05;13.10;99.90
4795;DHT22;2411;47.060;15.064;2023-09-07T01:29:33;13.10;99.90
4795;DHT22;2411;47.060;15.064;2023-09-07T01:32:01;13.00;99.90
4795;DHT22;2411;47.060;15.064;2023-09-07T01:34:28;13.10;99.90
4795;DHT22;2411;47.060;15.064;2023-09-07T01:36:55;12.90;99.90
4795;DHT22;2411;47.060;15.064;2023-09-07T01:39:23;12.90;99.90
4795;DHT22;2411;47.060;15.064;2023-09-07T01:41:50;12.90;99.90
4795;DHT22;2411;47.060;15.064;2023-09-07T01:44:17;13.10;99.90
4795;DHT22;2411;47.060;15.064;2023-09-07T01:46:46;12.90;99.90
4795;DHT22;2411;47.060;15.064;2023-09-07T01:49:13;13.00;99.90
4795;DHT22;2411;47.060;15.064;2023-09-07T01:51:40;13.10;99.90
4795;DHT22;2411;47.060;15.064;2023-09-07T01:54:08;13.00;99.90
4795;DHT22;2411;47.060;15.064;2023-09-07T01:56:37;12.80;99.90
4795;DHT22;2411;47.060;15.064;2023-09-07T01:59:04;12.80;99.90
4795;DHT22;2411;47.060;15.064;2023-09-07T02:01:31;12.80;99.90
4795;DHT22;2411;47.060;15.064;2023-09-07T02:04:04;13.20;99.90
4795;DHT22;2411;47.060;15.064;2023-09-07T02:06:31;12.80;99.90
4795;DHT22;2411;47.060;15.064;2023-09-07T02:08:58;12.70;99.90
4795;DHT22;2411;47.060;15.064;2023-09-07T02:11:26;12.90;99.90
4795;DHT22;2411;47.060;15.064;2023-09-07T02:13:53;13.10;99.90
4795;DHT22;2411;47.060;15.064;2023-09-07T02:16:20;13.00;99.90
4795;DHT22;2411;47.060;15.064;2023-09-07T02:18:50;12.80;99.90
4795;DHT22;2411;47.060;15.064;2023-09-07T02:21:17;13.00;99.90
4795;DHT22;2411;47.060;15.064;2023-09-07T02:23:44;13.10;99.90
4795;DHT22;2411;47.060;15.064;2023-09-07T02:26:12;12.70;99.90
4795;DHT22;2411;47.060;15.064;2023-09-07T02:28:39;12.50;99.90
4795;DHT22;2411;47.060;15.064;2023-09-07T02:31:06;12.60;99.90
4795;DHT22;2411;47.060;15.064;2023-09-07T02:33:34;12.70;99.90
4795;DHT22;2411;47.060;15.064;2023-09-07T02:36:02;12.70;99.90
4795;DHT22;2411;47.060;15.064;2023-09-07T02:38:30;13.00;99.90
4795;DHT22;2411;47.060;15.064;2023-09-07T02:40:57;12.90;99.90
4795;DHT22;2411;47.060;15.064;2023-09-07T02:43:25;13.00;99.90
4795;DHT22;2411;47.060;15.064;2023-09-07T02:45:52;13.10;99.90
4795;DHT22;2411;47.060;15.064;2023-09-07T02:48:19;13.10;99.90
4795;DHT22;2411;47.060;15.064;2023-09-07T02:50:48;13.00;99.90
4795;DHT22;2411;47.060;15.064;2023-09-07T02:53:17;12.90;99.90
4795;DHT22;2411;47.060;15.064;2023-09-07T02:55:45;12.60;99.90
4795;DHT22;2411;47.060;15.064;2023-09-07T02:58:12;13.10;99.90
4795;DHT22;2411;47.060;15.064;2023-09-07T03:00:43;12.60;99.90
4795;DHT22;2411;47.060;15.064;2023-09-07T03:03:12;13.00;99.90
4795;DHT22;2411;47.060;15.064;2023-09-07T03:05:40;12.90;99.90
4795;DHT22;2411;47.060;15.064;2023-09-07T03:08:08;13.00;99.90
4795;DHT22;2411;47.060;15.064;2023-09-07T03:10:36;12.80;99.90
4795;DHT22;2411;47.060;15.064;2023-09-07T03:13:07;13.00;99.90
4795;DHT22;2411;47.060;15.064;2023-09-07T03:15:35;12.70;99.90
4795;DHT22;2411;47.060;15.064;2023-09-07T03:18:03;12.60;99.90
4795;DHT22;2411;47.060;15.064;2023-09-07T03:20:33;12.60;99.90
4795;DHT22;2411;47.060;15.064;2023-09-07T03:23:01;12.50;99.90
4795;DHT22;2411;47.060;15.064;2023-09-07T03:25:29;13.00;99.90
4795;DHT22;2411;47.060;15.064;2023-09-07T03:27:56;12.70;99.90
4795;DHT22;2411;47.060;15.064;2023-09-07T03:30:23;12.70;99.90
4795;DHT22;2411;47.060;15.064;2023-09-07T03:32:51;12.80;99.90
4795;DHT22;2411;47.060;15.064;2023-09-07T03:35:18;12.60;99.90
4795;DHT22;2411;47.060;15.064;2023-09-07T03:37:45;12.80;99.90
4795;DHT22;2411;47.060;15.064;2023-09-07T03:40:13;12.60;99.90
4795;DHT22;2411;47.060;15.064;2023-09-07T03:42:40;13.00;99.90
4795;DHT22;2411;47.060;15.064;2023-09-07T03:45:07;13.20;99.90
4795;DHT22;2411;47.060;15.064;2023-09-07T03:47:36;13.10;99.90
4795;DHT22;2411;47.060;15.064;2023-09-07T03:50:05;12.90;99.90
4795;DHT22;2411;47.060;15.064;2023-09-07T03:52:33;13.00;99.90
4795;DHT22;2411;47.060;15.064;2023-09-07T03:55:01;12.90;99.90
4795;DHT22;2411;47.060;15.064;2023-09-07T03:57:28;12.80;99.90
4795;DHT22;2411;47.060;15.064;2023-09-07T03:59:56;12.50;99.90
4795;DHT22;2411;47.060;15.064;2023-09-07T04:02:24;12.60;99.90
4795;DHT22;2411;47.060;15.064;2023-09-07T04:04:53;12.60;99.90
4795;DHT22;2411;47.060;15.064;2023-09-07T04:07:22;12.20;99.90
4795;DHT22;2411;47.060;15.064;2023-09-07T04:09:50;12.30;99.90
4795;DHT22;2411;47.060;15.064;2023-09-07T04:12:17;12.80;99.90
4795;DHT22;2411;47.060;15.064;2023-09-07T04:14:44;12.60;99.90
4795;DHT22;2411;47.060;15.064;2023-09-07T04:17:12;12.80;99.90
4795;DHT22;2411;47.060;15.064;2023-09-07T04:19:40;12.60;99.90
4795;DHT22;2411;47.060;15.064;2023-09-07T04:22:07;12.70;99.90
4795;DHT22;2411;47.060;15.064;2023-09-07T04:24:34;12.70;99.90
4795;DHT22;2411;47.060;15.064;2023-09-07T04:27:02;12.60;99.90
4795;DHT22;2411;47.060;15.064;2023-09-07T04:29:29;12.80;99.90
4795;DHT22;2411;47.060;15.064;2023-09-07T04:31:57;12.80;99.90
4795;DHT22;2411;47.060;15.064;2023-09-07T04:34:24;13.00;99.90
4795;DHT22;2411;47.060;15.064;2023-09-07T04:36:52;12.70;99.90
4795;DHT22;2411;47.060;15.064;2023-09-07T04:39:19;12.70;99.90
4795;DHT22;2411;47.060;15.064;2023-09-07T04:41:46;12.50;99.90
4795;DHT22;2411;47.060;15.064;2023-09-07T04:44:14;12.50;99.90
4795;DHT22;2411;47.060;15.064;2023-09-07T04:46:41;12.30;99.90
4795;DHT22;2411;47.060;15.064;2023-09-07T04:49:09;12.40;99.90
4795;DHT22;2411;47.060;15.064;2023-09-07T04:51:36;12.40;99.90
4795;DHT22;2411;47.060;15.064;2023-09-07T04:54:03;12.60;99.90
4795;DHT22;2411;47.060;15.064;2023-09-07T04:56:31;12.70;99.90
4795;DHT22;2411;47.060;15.064;2023-09-07T04:58:58;13.10;99.90
4795;DHT22;2411;47.060;15.064;2023-09-07T05:01:25;13.10;99.90
4795;DHT22;2411;47.060;15.064;2023-09-07T05:03:53;13.00;99.90
4795;DHT22;2411;47.060;15.064;2023-09-07T05:06:21;12.60;99.90
4795;DHT22;2411;47.060;15.064;2023-09-07T05:08:50;12.60;99.90
4795;DHT22;2411;47.060;15.064;2023-09-07T05:11:17;12.50;99.90
4795;DHT22;2411;47.060;15.064;2023-09-07T05:13:45;12.50;99.90
4795;DHT22;2411;47.060;15.064;2023-09-07T05:16:12;12.50;99.90
4795;DHT22;2411;47.060;15.064;2023-09-07T05:18:41;12.60;99.90
4795;DHT22;2411;47.060;15.064;2023-09-07T05:21:15;12.90;99.90
4795;DHT22;2411;47.060;15.064;2023-09-07T05:23:42;12.90;99.90
4795;DHT22;2411;47.060;15.064;2023-09-07T05:26:10;12.80;99.90
4795;DHT22;2411;47.060;15.064;2023-09-07T05:28:40;12.90;99.90
4795;DHT22;2411;47.060;15.064;2023-09-07T05:31:08;13.10;99.90
4795;DHT22;2411;47.060;15.064;2023-09-07T05:33:36;13.50;99.90
4795;DHT22;2411;47.060;15.064;2023-09-07T05:36:03;13.50;99.90
4795;DHT22;2411;47.060;15.064;2023-09-07T05:38:30;13.40;99.90
4795;DHT22;2411;47.060;15.064;2023-09-07T05:41:00;13.30;99.90
4795;DHT22;2411;47.060;15.064;2023-09-07T05:43:27;13.70;99.90
4795;DHT22;2411;47.060;15.064;2023-09-07T05:45:55;13.50;99.90
4795;DHT22;2411;47.060;15.064;2023-09-07T05:48:22;13.80;99.90
4795;DHT22;2411;47.060;15.064;2023-09-07T05:50:49;13.90;99.90
4795;DHT22;2411;47.060;15.064;2023-09-07T05:53:18;14.10;99.90
4795;DHT22;2411;47.060;15.064;2023-09-07T05:55:47;14.40;99.90
4795;DHT22;2411;47.060;15.064;2023-09-07T05:58:14;14.50;99.90
4795;DHT22;2411;47.060;15.064;2023-09-07T06:00:42;14.60;99.90
4795;DHT22;2411;47.060;15.064;2023-09-07T06:03:10;14.70;99.90
4795;DHT22;2411;47.060;15.064;2023-09-07T06:05:38;14.90;99.90
4795;DHT22;2411;47.060;15.064;2023-09-07T06:08:06;14.70;99.90
4795;DHT22;2411;47.060;15.064;2023-09-07T06:10:34;14.90;99.90
4795;DHT22;2411;47.060;15.064;2023-09-07T06:13:02;15.00;99.90
4795;DHT22;2411;47.060;15.064;2023-09-07T06:15:30;15.00;99.90
4795;DHT22;2411;47.060;15.064;2023-09-07T06:17:58;15.30;99.90
4795;DHT22;2411;47.060;15.064;2023-09-07T06:20:25;15.30;99.90
4795;DHT22;2411;47.060;15.064;2023-09-07T06:22:52;15.40;99.90
4795;DHT22;2411;47.060;15.064;2023-09-07T06:25:20;15.30;99.90
4795;DHT22;2411;47.060;15.064;2023-09-07T06:27:49;15.40;99.90
4795;DHT22;2411;47.060;15.064;2023-09-07T06:30:17;15.60;99.90
4795;DHT22;2411;47.060;15.064;2023-09-07T06:32:45;15.60;99.90
4795;DHT22;2411;47.060;15.064;2023-09-07T06:35:12;15.80;99.90
4795;DHT22;2411;47.060;15.064;2023-09-07T06:37:39;15.90;99.90
4795;DHT22;2411;47.060;15.064;2023-09-07T06:40:09;16.10;99.90
4795;DHT22;2411;47.060;15.064;2023-09-07T06:42:37;16.30;99.90
4795;DHT22;2411;47.060;15.064;2023-09-07T06:45:05;16.10;99.90
4795;DHT22;2411;47.060;15.064;2023-09-07T06:47:33;16.20;99.90
4795;DHT22;2411;47.060;15.064;2023-09-07T06:50:01;16.20;99.90
4795;DHT22;2411;47.060;15.064;2023-09-07T06:52:29;16.70;99.90
4795;DHT22;2411;47.060;15.064;2023-09-07T06:54:56;16.40;99.90
4795;DHT22;2411;47.060;15.064;2023-09-07T06:57:24;16.60;99.90
4795;DHT22;2411;47.060;15.064;2023-09-07T06:59:51;16.90;99.90
4795;DHT22;2411;47.060;15.064;2023-09-07T07:02:18;16.90;99.90
4795;DHT22;2411;47.060;15.064;2023-09-07T07:04:46;17.00;99.90
4795;DHT22;2411;47.060;15.064;2023-09-07T07:07:14;17.10;99.90
4795;DHT22;2411;47.060;15.064;2023-09-07T07:09:41;17.40;99.90
4795;DHT22;2411;47.060;15.064;2023-09-07T07:12:08;17.50;99.90
4795;DHT22;2411;47.060;15.064;2023-09-07T07:14:35;17.60;99.90
4795;DHT22;2411;47.060;15.064;2023-09-07T07:17:03;17.60;99.90
4795;DHT22;2411;47.060;15.064;2023-09-07T07:19:32;17.60;99.90
4795;DHT22;2411;47.060;15.064;2023-09-07T07:21:59;17.80;99.90
4795;DHT22;2411;47.060;15.064;2023-09-07T07:24:26;17.80;99.90
4795;DHT22;2411;47.060;15.064;2023-09-07T07:26:54;18.10;99.90
4795;DHT22;2411;47.060;15.064;2023-09-07T07:29:21;18.20;99.90
4795;DHT22;2411;47.060;15.064;2023-09-07T07:31:48;18.30;99.90
4795;DHT22;2411;47.060;15.064;2023-09-07T07:34:16;18.30;99.90
4795;DHT22;2411;47.060;15.064;2023-09-07T07:36:43;18.50;99.90
4795;DHT22;2411;47.060;15.064;2023-09-07T07:39:11;18.50;99.90
4795;DHT22;2411;47.060;15.064;2023-09-07T07:41:38;18.70;99.90
4795;DHT22;2411;47.060;15.064;2023-09-07T07:44:09;18.80;99.90
4795;DHT22;2411;47.060;15.064;2023-09-07T07:46:36;18.80;99.90
4795;DHT22;2411;47.060;15.064;2023-09-07T07:49:04;19.00;99.90
4795;DHT22;2411;47.060;15.064;2023-09-07T07:51:31;19.20;99.90
4795;DHT22;2411;47.060;15.064;2023-09-07T07:53:59;19.20;99.90
4795;DHT22;2411;47.060;15.064;2023-09-07T07:56:26;19.30;99.90
4795;DHT22;2411;47.060;15.064;2023-09-07T07:58:55;19.40;99.90
4795;DHT22;2411;47.060;15.064;2023-09-07T08:01:23;19.60;99.90
4795;DHT22;2411;47.060;15.064;2023-09-07T08:03:52;19.60;99.90
4795;DHT22;2411;47.060;15.064;2023-09-07T08:06:21;19.70;99.90
4795;DHT22;2411;47.060;15.064;2023-09-07T08:08:48;19.60;99.90
4795;DHT22;2411;47.060;15.064;2023-09-07T08:11:16;20.10;99.90
4795;DHT22;2411;47.060;15.064;2023-09-07T08:13:43;20.20;99.90
4795;DHT22;2411;47.060;15.064;2023-09-07T08:16:13;20.00;99.90
4795;DHT22;2411;47.060;15.064;2023-09-07T08:18:41;20.00;99.90
4795;DHT22;2411;47.060;15.064;2023-09-07T08:21:08;20.40;99.90
4795;DHT22;2411;47.060;15.064;2023-09-07T08:23:35;20.40;99.90
4795;DHT22;2411;47.060;15.064;2023-09-07T08:26:03;20.40;99.90
4795;DHT22;2411;47.060;15.064;2023-09-07T08:28:30;20.80;99.90
4795;DHT22;2411;47.060;15.064;2023-09-07T08:30:58;20.60;99.90
4795;DHT22;2411;47.060;15.064;2023-09-07T08:33:28;20.90;99.90
4795;DHT22;2411;47.060;15.064;2023-09-07T08:35:57;20.70;99.90
4795;DHT22;2411;47.060;15.064;2023-09-07T08:38:24;20.70;99.90
4795;DHT22;2411;47.060;15.064;2023-09-07T08:40:54;20.90;99.90
4795;DHT22;2411;47.060;15.064;2023-09-07T08:43:22;20.90;99.90
4795;DHT22;2411;47.060;15.064;2023-09-07T08:46:11;21.30;99.90
4795;DHT22;2411;47.060;15.064;2023-09-07T08:48:45;21.00;99.90
4795;DHT22;2411;47.060;15.064;2023-09-07T08:51:15;21.20;99.90
4795;DHT22;2411;47.060;15.064;2023-09-07T08:53:44;21.20;99.90
4795;DHT22;2411;47.060;15.064;2023-09-07T08:56:14;21.50;99.90
4795;DHT22;2411;47.060;15.064;2023-09-07T08:58:42;21.20;99.90
4795;DHT22;2411;47.060;15.064;2023-09-07T09:01:12;21.40;99.90
4795;DHT22;2411;47.060;15.064;2023-09-07T09:03:45;21.40;99.90
4795;DHT22;2411;47.060;15.064;2023-09-07T09:06:14;21.40;99.90
4795;DHT22;2411;47.060;15.064;2023-09-07T09:08:47;21.40;99.90
4795;DHT22;2411;47.060;15.064;2023-09-07T09:11:20;21.80;99.90
4795;DHT22;2411;47.060;15.064;2023-09-07T09:13:49;21.60;99.90
4795;DHT22;2411;47.060;15.064;2023-09-07T09:16:17;22.10;99.90
4795;DHT22;2411;47.060;15.064;2023-09-07T09:21:24;21.90;99.90
4795;DHT22;2411;47.060;15.064;2023-09-07T09:23:54;22.20;99.90
4795;DHT22;2411;47.060;15.064;2023-09-07T09:26:22;22.00;99.90
4795;DHT22;2411;47.060;15.064;2023-09-07T09:28:55;22.20;99.90
4795;DHT22;2411;47.060;15.064;2023-09-07T09:31:24;22.30;99.90
4795;DHT22;2411;47.060;15.064;2023-09-07T09:33:52;22.00;99.90
4795;DHT22;2411;47.060;15.064;2023-09-07T09:36:20;22.00;99.90
4795;DHT22;2411;47.060;15.064;2023-09-07T09:38:49;22.10;99.90
4795;DHT22;2411;47.060;15.064;2023-09-07T09:41:17;22.40;99.90
4795;DHT22;2411;47.060;15.064;2023-09-07T09:43:46;22.10;99.90
4795;DHT22;2411;47.060;15.064;2023-09-07T09:46:17;22.50;99.90
4795;DHT22;2411;47.060;15.064;2023-09-07T09:48:45;22.60;99.90
4795;DHT22;2411;47.060;15.064;2023-09-07T09:51:14;22.70;99.90
4795;DHT22;2411;47.060;15.064;2023-09-07T09:53:42;22.60;99.90
4795;DHT22;2411;47.060;15.064;2023-09-07T09:56:10;22.50;99.90
4795;DHT22;2411;47.060;15.064;2023-09-07T09:58:38;22.60;99.90
4795;DHT22;2411;47.060;15.064;2023-09-07T10:01:06;22.50;99.90
4795;DHT22;2411;47.060;15.064;2023-09-07T10:03:38;22.80;99.90
4795;DHT22;2411;47.060;15.064;2023-09-07T10:06:28;22.60;99.90
4795;DHT22;2411;47.060;15.064;2023-09-07T10:09:03;22.70;99.90
4795;DHT22;2411;47.060;15.064;2023-09-07T10:11:36;22.80;99.90
4795;DHT22;2411;47.060;15.064;2023-09-07T10:14:08;23.10;99.90
4795;DHT22;2411;47.060;15.064;2023-09-07T10:16:43;22.80;99.90
4795;DHT22;2411;47.060;15.064;2023-09-07T10:19:25;23.30;99.90
4795;DHT22;2411;47.060;15.064;2023-09-07T10:21:54;23.20;99.90
4795;DHT22;2411;47.060;15.064;2023-09-07T10:24:29;23.40;99.90
4795;DHT22;2411;47.060;15.064;2023-09-07T10:27:02;23.00;99.90
4795;DHT22;2411;47.060;15.064;2023-09-07T10:29:47;23.10;99.90
4795;DHT22;2411;47.060;15.064;2023-09-07T10:32:22;23.40;99.90
4795;DHT22;2411;47.060;15.064;2023-09-07T10:34:50;23.30;99.90
4795;DHT22;2411;47.060;15.064;2023-09-07T10:37:17;23.10;99.90
4795;DHT22;2411;47.060;15.064;2023-09-07T10:39:45;23.30;99.90
4795;DHT22;2411;47.060;15.064;2023-09-07T10:42:22;23.30;99.90
4795;DHT22;2411;47.060;15.064;2023-09-07T10:44:51;23.40;99.90
4795;DHT22;2411;47.060;15.064;2023-09-07T10:47:19;23.50;99.90
4795;DHT22;2411;47.060;15.064;2023-09-07T10:49:46;23.30;99.90
4795;DHT22;2411;47.060;15.064;2023-09-07T10:52:13;23.30;99.90
4795;DHT22;2411;47.060;15.064;2023-09-07T10:54:40;23.60;99.90
4795;DHT22;2411;47.060;15.064;2023-09-07T10:57:09;23.50;99.90
4795;DHT22;2411;47.060;15.064;2023-09-07T10:59:36;23.40;99.90
4795;DHT22;2411;47.060;15.064;2023-09-07T11:02:07;23.40;99.90
4795;DHT22;2411;47.060;15.064;2023-09-07T11:04:34;23.70;99.90
4795;DHT22;2411;47.060;15.064;2023-09-07T11:07:02;23.60;99.90
4795;DHT22;2411;47.060;15.064;2023-09-07T11:09:30;23.60;99.90
4795;DHT22;2411;47.060;15.064;2023-09-07T11:12:05;23.70;99.90
4795;DHT22;2411;47.060;15.064;2023-09-07T11:14:32;23.70;99.90
4795;DHT22;2411;47.060;15.064;2023-09-07T11:17:03;23.40;99.90
4795;DHT22;2411;47.060;15.064;2023-09-07T11:19:34;23.70;99.90
4795;DHT22;2411;47.060;15.064;2023-09-07T11:22:01;23.90;99.90
4795;DHT22;2411;47.060;15.064;2023-09-07T11:24:32;23.90;99.90
4795;DHT22;2411;47.060;15.064;2023-09-07T11:27:01;23.90;99.90
4795;DHT22;2411;47.060;15.064;2023-09-07T11:29:32;23.70;99.90
4795;DHT22;2411;47.060;15.064;2023-09-07T11:32:07;24.00;99.90
4795;DHT22;2411;47.060;15.064;2023-09-07T11:34:35;23.70;99.90
4795;DHT22;2411;47.060;15.064;2023-09-07T11:37:03;24.00;99.90
4795;DHT22;2411;47.060;15.064;2023-09-07T11:39:30;23.70;99.90
4795;DHT22;2411;47.060;15.064;2023-09-07T11:41:57;24.00;99.90
4795;DHT22;2411;47.060;15.064;2023-09-07T11:44:24;24.00;99.90
4795;DHT22;2411;47.060;15.064;2023-09-07T11:46:51;23.60;99.90
4795;DHT22;2411;47.060;15.064;2023-09-07T11:49:19;23.90;99.90
4795;DHT22;2411;47.060;15.064;2023-09-07T11:51:48;23.90;99.90
4795;DHT22;2411;47.060;15.064;2023-09-07T11:54:16;24.20;99.90
4795;DHT22;2411;47.060;15.064;2023-09-07T11:56:43;23.90;99.90
4795;DHT22;2411;47.060;15.064;2023-09-07T11:59:12;23.90;99.90
4795;DHT22;2411;47.060;15.064;2023-09-07T12:01:39;24.10;99.90
4795;DHT22;2411;47.060;15.064;2023-09-07T12:04:07;24.00;99.90
4795;DHT22;2411;47.060;15.064;2023-09-07T12:06:34;24.10;99.90
4795;DHT22;2411;47.060;15.064;2023-09-07T12:09:07;24.10;99.90
4795;DHT22;2411;47.060;15.064;2023-09-07T12:11:34;24.40;99.90
4795;DHT22;2411;47.060;15.064;2023-09-07T12:14:01;24.30;99.90
4795;DHT22;2411;47.060;15.064;2023-09-07T12:16:29;24.40;99.90
4795;DHT22;2411;47.060;15.064;2023-09-07T12:18:57;24.10;99.90
4795;DHT22;2411;47.060;15.064;2023-09-07T12:21:25;24.40;99.90
4795;DHT22;2411;47.060;15.064;2023-09-07T12:23:52;24.50;99.90
4795;DHT22;2411;47.060;15.064;2023-09-07T12:26:19;24.10;99.90
4795;DHT22;2411;47.060;15.064;2023-09-07T12:28:48;24.50;99.90
4795;DHT22;2411;47.060;15.064;2023-09-07T12:31:15;24.30;99.90
4795;DHT22;2411;47.060;15.064;2023-09-07T12:33:43;24.20;99.90
4795;DHT22;2411;47.060;15.064;2023-09-07T12:36:11;24.60;99.90
4795;DHT22;2411;47.060;15.064;2023-09-07T12:38:39;24.40;99.90
4795;DHT22;2411;47.060;15.064;2023-09-07T12:41:06;24.40;99.90
4795;DHT22;2411;47.060;15.064;2023-09-07T12:43:33;24.30;99.90
4795;DHT22;2411;47.060;15.064;2023-09-07T12:46:01;24.40;99.90
4795;DHT22;2411;47.060;15.064;2023-09-07T12:48:29;24.40;99.90
4795;DHT22;2411;47.060;15.064;2023-09-07T12:50:56;24.50;99.90
4795;DHT22;2411;47.060;15.064;2023-09-07T12:53:23;24.40;99.90
4795;DHT22;2411;47.060;15.064;2023-09-07T12:55:53;24.40;99.90
4795;DHT22;2411;47.060;15.064;2023-09-07T12:58:20;24.30;99.90
4795;DHT22;2411;47.060;15.064;2023-09-07T13:00:47;24.20;99.90
4795;DHT22;2411;47.060;15.064;2023-09-07T13:03:15;24.20;99.90
4795;DHT22;2411;47.060;15.064;2023-09-07T13:05:43;24.30;99.90
4795;DHT22;2411;47.060;15.064;2023-09-07T13:08:11;24.50;99.90
4795;DHT22;2411;47.060;15.064;2023-09-07T13:10:38;24.60;99.90
4795;DHT22;2411;47.060;15.064;2023-09-07T13:13:06;24.40;99.90
4795;DHT22;2411;47.060;15.064;2023-09-07T13:15:34;24.60;99.90
4795;DHT22;2411;47.060;15.064;2023-09-07T13:18:01;24.30;99.90
4795;DHT22;2411;47.060;15.064;2023-09-07T13:20:28;24.50;99.90
4795;DHT22;2411;47.060;15.064;2023-09-07T13:22:56;24.40;99.90
4795;DHT22;2411;47.060;15.064;2023-09-07T13:25:23;24.40;99.90
4795;DHT22;2411;47.060;15.064;2023-09-07T13:27:51;24.60;99.90
4795;DHT22;2411;47.060;15.064;2023-09-07T13:30:18;24.30;99.90
4795;DHT22;2411;47.060;15.064;2023-09-07T13:32:45;24.40;99.90
4795;DHT22;2411;47.060;15.064;2023-09-07T13:35:14;24.70;99.90
4795;DHT22;2411;47.060;15.064;2023-09-07T13:37:42;24.60;99.90
4795;DHT22;2411;47.060;15.064;2023-09-07T13:40:09;24.40;99.90
4795;DHT22;2411;47.060;15.064;2023-09-07T13:42:37;24.70;99.90
4795;DHT22;2411;47.060;15.064;2023-09-07T13:45:06;24.70;99.90
4795;DHT22;2411;47.060;15.064;2023-09-07T13:47:33;24.90;99.90
4795;DHT22;2411;47.060;15.064;2023-09-07T13:50:01;24.90;99.90
4795;DHT22;2411;47.060;15.064;2023-09-07T13:52:28;24.60;99.90
4795;DHT22;2411;47.060;15.064;2023-09-07T13:54:55;24.90;99.90
4795;DHT22;2411;47.060;15.064;2023-09-07T13:57:22;24.50;99.90
4795;DHT22;2411;47.060;15.064;2023-09-07T13:59:50;24.60;99.90
4795;DHT22;2411;47.060;15.064;2023-09-07T14:02:17;24.70;99.90
4795;DHT22;2411;47.060;15.064;2023-09-07T14:04:44;24.80;99.90
4795;DHT22;2411;47.060;15.064;2023-09-07T14:07:11;25.10;99.90
4795;DHT22;2411;47.060;15.064;2023-09-07T14:09:39;24.90;99.90
4795;DHT22;2411;47.060;15.064;2023-09-07T14:12:06;25.00;99.90
4795;DHT22;2411;47.060;15.064;2023-09-07T14:14:34;24.90;99.90
4795;DHT22;2411;47.060;15.064;2023-09-07T14:17:01;24.80;99.90
4795;DHT22;2411;47.060;15.064;2023-09-07T14:19:29;24.80;99.90
4795;DHT22;2411;47.060;15.064;2023-09-07T14:21:58;24.90;99.90
4795;DHT22;2411;47.060;15.064;2023-09-07T14:24:25;25.20;99.90
4795;DHT22;2411;47.060;15.064;2023-09-07T14:26:53;25.10;99.90
4795;DHT22;2411;47.060;15.064;2023-09-07T14:29:20;24.80;99.90
4795;DHT22;2411;47.060;15.064;2023-09-07T14:31:47;24.80;99.90
4795;DHT22;2411;47.060;15.064;2023-09-07T14:34:14;24.90;99.90
4795;DHT22;2411;47.060;15.064;2023-09-07T14:36:41;25.00;99.90
4795;DHT22;2411;47.060;15.064;2023-09-07T14:39:09;24.90;99.90
4795;DHT22;2411;47.060;15.064;2023-09-07T14:41:36;25.00;99.90
4795;DHT22;2411;47.060;15.064;2023-09-07T14:44:04;24.70;99.90
4795;DHT22;2411;47.060;15.064;2023-09-07T14:46:31;24.80;99.90
4795;DHT22;2411;47.060;15.064;2023-09-07T14:48:59;24.70;99.90
4795;DHT22;2411;47.060;15.064;2023-09-07T14:51:27;24.90;99.90
4795;DHT22;2411;47.060;15.064;2023-09-07T14:53:55;24.50;99.90
4795;DHT22;2411;47.060;15.064;2023-09-07T14:56:22;25.00;99.90
4795;DHT22;2411;47.060;15.064;2023-09-07T14:58:49;24.70;99.90
4795;DHT22;2411;47.060;15.064;2023-09-07T15:01:16;24.70;99.90
4795;DHT22;2411;47.060;15.064;2023-09-07T15:03:44;24.90;99.90
4795;DHT22;2411;47.060;15.064;2023-09-07T15:06:11;24.60;99.90
4795;DHT22;2411;47.060;15.064;2023-09-07T15:08:39;24.50;99.90
4795;DHT22;2411;47.060;15.064;2023-09-07T15:11:07;24.60;99.90
4795;DHT22;2411;47.060;15.064;2023-09-07T15:13:34;24.60;99.90
4795;DHT22;2411;47.060;15.064;2023-09-07T15:16:01;24.50;99.90
4795;DHT22;2411;47.060;15.064;2023-09-07T15:18:29;24.90;99.90
4795;DHT22;2411;47.060;15.064;2023-09-07T15:20:57;24.60;99.90
4795;DHT22;2411;47.060;15.064;2023-09-07T15:23:24;24.60;99.90
4795;DHT22;2411;47.060;15.064;2023-09-07T15:25:51;24.30;99.90
4795;DHT22;2411;47.060;15.064;2023-09-07T15:28:19;24.40;99.90
4795;DHT22;2411;47.060;15.064;2023-09-07T15:30:46;24.20;99.90
4795;DHT22;2411;47.060;15.064;2023-09-07T15:33:13;24.30;99.90
4795;DHT22;2411;47.060;15.064;2023-09-07T15:35:40;24.20;99.90
4795;DHT22;2411;47.060;15.064;2023-09-07T15:38:08;24.30;99.90
4795;DHT22;2411;47.060;15.064;2023-09-07T15:40:35;24.10;99.90
4795;DHT22;2411;47.060;15.064;2023-09-07T15:43:03;24.00;99.90
4795;DHT22;2411;47.060;15.064;2023-09-07T15:45:30;24.10;99.90
4795;DHT22;2411;47.060;15.064;2023-09-07T15:47:57;24.10;99.90
4795;DHT22;2411;47.060;15.064;2023-09-07T15:50:25;24.00;99.90
4795;DHT22;2411;47.060;15.064;2023-09-07T15:52:52;24.00;99.90